Time;durP1;ratioP1;P1;durP2;ratioP2;P2;SDS_P1;SDS_P2;PMS_P1;PMS_P2;Temp;Humidity;BMP_temperature;BMP_pressure;BME280_temperature;BME280_humidity;BME280_pressure;Samples;Min_cycle;Max_cycle;Signal;HPM_P1;HPM_P2
2022/03/22 00:01:35;;;;;;;54.35;37.25;;;10.00;99.90;;;;;;4947197;28;20055;-70
2022/03/22 00:04:03;;;;;;;53.28;37.70;;;10.10;99.90;;;;;;4954242;29;20075;-70
2022/03/22 00:06:30;;;;;;;49.13;34.67;;;10.10;99.90;;;;;;4961755;28;20039;-70
2022/03/22 00:08:57;;;;;;;53.30;37.67;;;10.10;99.90;;;;;;4937848;29;20059;-71
2022/03/22 00:11:24;;;;;;;53.90;33.50;;;10.20;99.90;;;;;;4947187;28;20058;-70
2022/03/22 00:13:51;;;;;;;52.47;35.20;;;10.20;99.90;;;;;;4944223;28;20044;-70
2022/03/22 00:16:18;;;;;;;56.80;39.95;;;10.20;99.90;;;;;;4949346;29;20055;-70
2022/03/22 00:19:05;;;;;;;50.40;36.65;;;10.20;99.90;;;;;;4951878;29;20043;-70
2022/03/22 00:21:32;;;;;;;56.70;36.33;;;10.20;99.90;;;;;;4950656;29;20107;-69
2022/03/22 00:23:59;;;;;;;52.95;37.97;;;10.20;99.90;;;;;;4955836;28;20048;-70
2022/03/22 00:26:26;;;;;;;56.45;38.50;;;10.20;99.90;;;;;;4954059;28;20051;-69
2022/03/22 00:28:53;;;;;;;55.50;37.55;;;10.20;99.90;;;;;;4954871;28;20542;-69
2022/03/22 00:31:20;;;;;;;53.03;37.25;;;10.20;99.90;;;;;;4945462;28;20052;-69
2022/03/22 00:33:47;;;;;;;61.30;38.67;;;10.30;99.90;;;;;;4966808;28;20440;-69
2022/03/22 00:36:13;;;;;;;52.15;36.70;;;10.20;99.90;;;;;;4948162;29;20055;-69
2022/03/22 00:38:41;;;;;;;54.53;38.83;;;10.30;99.90;;;;;;4954212;29;20051;-69
2022/03/22 00:41:07;;;;;;;57.40;40.75;;;10.30;99.90;;;;;;4965538;28;20070;-69
2022/03/22 00:43:34;;;;;;;51.92;38.13;;;10.20;99.90;;;;;;4969708;28;20492;-70
2022/03/22 00:46:02;;;;;;;55.47;37.60;;;10.20;99.90;;;;;;4951571;29;20078;-70
2022/03/22 00:48:29;;;;;;;59.75;39.78;;;10.20;99.90;;;;;;4951638;29;20462;-69
2022/03/22 00:50:56;;;;;;;60.22;39.92;;;10.20;99.90;;;;;;4953184;28;20055;-69
2022/03/22 00:53:23;;;;;;;62.53;41.80;;;10.20;99.90;;;;;;4955819;28;20134;-69
2022/03/22 00:55:50;;;;;;;62.20;42.03;;;10.20;99.90;;;;;;4964218;28;20058;-69
2022/03/22 00:58:17;;;;;;;61.95;42.67;;;10.20;99.90;;;;;;4937093;29;20054;-69
2022/03/22 01:00:45;;;;;;;62.65;43.60;;;10.20;99.90;;;;;;4944989;29;20073;-69
2022/03/22 01:03:12;;;;;;;62.17;43.55;;;10.20;99.90;;;;;;4929495;29;20039;-70
2022/03/22 01:05:39;;;;;;;64.90;43.17;;;10.20;99.90;;;;;;4936272;29;20040;-69
2022/03/22 01:08:08;;;;;;;63.95;41.78;;;10.20;99.90;;;;;;4942487;28;20051;-70
2022/03/22 01:10:37;;;;;;;65.35;42.92;;;10.20;99.90;;;;;;4952233;29;20055;-70
2022/03/22 01:13:06;;;;;;;57.53;41.90;;;10.20;99.90;;;;;;4958518;28;20040;-70
2022/03/22 01:15:34;;;;;;;70.20;44.63;;;10.20;99.90;;;;;;4956628;28;20395;-72
2022/03/22 01:18:06;;;;;;;65.60;42.47;;;10.20;99.90;;;;;;4951632;28;20499;-70
2022/03/22 01:20:38;;;;;;;68.03;45.25;;;10.20;99.90;;;;;;4959038;28;20086;-70
2022/03/22 01:23:07;;;;;;;62.40;44.08;;;10.20;99.90;;;;;;4945923;28;20150;-69
2022/03/22 01:25:34;;;;;;;73.40;48.13;;;10.10;99.90;;;;;;4921770;29;20051;-70
2022/03/22 01:28:07;;;;;;;70.93;45.22;;;10.10;99.90;;;;;;4952862;29;20055;-69
2022/03/22 01:30:34;;;;;;;65.72;46.60;;;10.00;99.90;;;;;;4968478;28;20053;-70
2022/03/22 01:33:02;;;;;;;67.22;45.55;;;10.00;99.90;;;;;;4966670;28;20058;-70
2022/03/22 01:35:29;;;;;;;70.25;47.63;;;10.00;99.90;;;;;;4939855;29;20070;-70
2022/03/22 01:37:57;;;;;;;69.13;44.50;;;9.90;99.90;;;;;;4950005;28;20061;-70
2022/03/22 01:40:25;;;;;;;67.25;44.85;;;9.90;99.90;;;;;;4949619;29;20047;-70
2022/03/22 01:42:53;;;;;;;64.63;44.93;;;9.90;99.90;;;;;;4949120;29;20051;-70
2022/03/22 01:45:20;;;;;;;69.55;45.67;;;9.80;99.90;;;;;;4952172;29;20134;-70
2022/03/22 01:47:47;;;;;;;69.80;47.72;;;9.70;99.90;;;;;;4950639;29;20063;-70
2022/03/22 01:50:15;;;;;;;65.20;47.53;;;9.70;99.90;;;;;;4966087;28;20165;-70
2022/03/22 01:52:43;;;;;;;70.22;50.25;;;9.70;99.90;;;;;;4951477;28;20069;-71
2022/03/22 01:55:18;;;;;;;78.18;53.10;;;9.60;99.90;;;;;;4947577;28;20139;-70
2022/03/22 01:57:45;;;;;;;74.90;49.92;;;9.60;99.90;;;;;;4942883;29;20110;-71
2022/03/22 02:00:15;;;;;;;71.18;49.05;;;9.50;99.90;;;;;;4935564;28;20058;-70
2022/03/22 02:08:17;;;;;;;68.97;48.78;;;9.40;99.90;;;;;;4948212;28;20047;-70
2022/03/22 02:10:44;;;;;;;80.50;51.45;;;9.40;99.90;;;;;;4957486;28;20046;-69
2022/03/22 02:13:11;;;;;;;75.53;52.45;;;9.40;99.90;;;;;;4952904;28;20047;-70
2022/03/22 02:15:38;;;;;;;74.22;50.10;;;9.30;99.90;;;;;;4974129;28;20054;-70
2022/03/22 02:18:05;;;;;;;78.13;50.60;;;9.30;99.90;;;;;;4951652;28;20051;-70
2022/03/22 02:20:32;;;;;;;78.97;51.40;;;9.20;99.90;;;;;;4960313;28;20051;-70
2022/03/22 02:23:06;;;;;;;78.15;52.60;;;9.20;99.90;;;;;;4953957;28;20097;-71
2022/03/22 02:25:35;;;;;;;82.47;52.97;;;9.10;99.90;;;;;;4952263;29;20051;-70
2022/03/22 02:28:03;;;;;;;81.40;54.78;;;9.10;99.90;;;;;;4941324;29;20056;-70
2022/03/22 02:30:30;;;;;;;90.15;62.35;;;9.00;99.90;;;;;;4967470;28;20510;-71
2022/03/22 02:33:00;;;;;;;91.57;61.25;;;9.00;99.90;;;;;;4932404;29;20071;-71
2022/03/22 02:35:28;;;;;;;;;;;9.00;99.90;;;;;;4943303;29;20062;-69
2022/03/22 02:37:55;;;;;;;77.82;48.63;;;9.00;99.90;;;;;;4948977;28;19934;-71
2022/03/22 02:40:24;;;;;;;79.07;53.45;;;8.90;99.90;;;;;;4948443;28;20059;-70
2022/03/22 02:42:54;;;;;;;81.80;55.47;;;8.90;99.90;;;;;;4907102;29;20410;-70
2022/03/22 02:45:21;;;;;;;84.13;56.45;;;8.80;99.90;;;;;;4946496;29;20098;-69
2022/03/22 02:47:48;;;;;;;85.72;55.30;;;8.80;99.90;;;;;;4958003;28;20058;-69
2022/03/22 02:50:15;;;;;;;89.90;56.88;;;8.80;99.90;;;;;;4954961;29;20142;-70
2022/03/22 02:52:43;;;;;;;85.35;55.83;;;8.70;99.90;;;;;;4954839;28;20043;-70
2022/03/22 02:55:10;;;;;;;87.07;54.17;;;8.70;99.90;;;;;;4954171;28;20048;-70
2022/03/22 02:57:38;;;;;;;84.47;58.45;;;8.70;99.90;;;;;;4949149;29;20047;-70
2022/03/22 03:00:07;;;;;;;87.45;57.08;;;8.70;99.90;;;;;;4968876;28;20047;-70
2022/03/22 03:02:51;;;;;;;90.05;57.35;;;8.80;99.90;;;;;;4968030;28;20055;-70
2022/03/22 03:05:23;;;;;;;88.00;55.58;;;8.80;99.90;;;;;;4969944;28;20082;-70
2022/03/22 03:07:52;;;;;;;82.07;56.80;;;8.80;99.90;;;;;;4924055;29;20047;-70
2022/03/22 03:10:19;;;;;;;99.63;60.47;;;8.80;99.90;;;;;;4946366;29;20051;-70
2022/03/22 03:12:46;;;;;;;94.78;59.70;;;8.80;99.90;;;;;;4957665;28;20051;-70
2022/03/22 03:15:13;;;;;;;92.53;57.72;;;8.80;99.90;;;;;;4941283;28;20063;-69
2022/03/22 03:17:40;;;;;;;81.43;54.60;;;8.80;99.90;;;;;;4960828;28;20058;-69
2022/03/22 03:20:07;;;;;;;94.00;56.58;;;8.90;99.90;;;;;;4952298;28;20059;-70
2022/03/22 03:22:36;;;;;;;84.22;58.78;;;8.90;99.90;;;;;;4961141;28;20110;-70
2022/03/22 03:25:06;;;;;;;87.25;57.85;;;8.90;99.90;;;;;;4930779;29;20111;-70
2022/03/22 03:27:33;;;;;;;87.88;57.60;;;8.90;99.90;;;;;;4953420;29;20039;-70
2022/03/22 03:30:00;;;;;;;87.47;60.38;;;9.00;99.90;;;;;;4963802;28;20488;-70
2022/03/22 03:32:27;;;;;;;86.18;61.53;;;9.00;99.90;;;;;;4955186;29;20051;-70
2022/03/22 03:34:54;;;;;;;88.00;58.72;;;9.00;99.90;;;;;;4962571;28;20051;-70
2022/03/22 03:37:23;;;;;;;87.95;58.45;;;9.00;99.90;;;;;;4945551;29;20056;-70
2022/03/22 03:39:51;;;;;;;86.15;60.45;;;9.10;99.90;;;;;;4970123;28;20047;-70
2022/03/22 03:42:18;;;;;;;87.38;57.90;;;9.10;99.90;;;;;;4939470;29;20059;-70
2022/03/22 03:47:31;;;;;;;89.50;56.78;;;9.10;99.90;;;;;;4962581;28;20063;-70
2022/03/22 03:49:59;;;;;;;89.82;59.60;;;9.10;99.90;;;;;;4941346;29;20077;-70
2022/03/22 03:52:29;;;;;;;87.88;58.15;;;9.10;99.90;;;;;;4951027;28;20052;-70
2022/03/22 03:54:57;;;;;;;95.40;58.08;;;9.10;99.90;;;;;;4946174;29;20619;-70
2022/03/22 03:57:24;;;;;;;88.75;58.08;;;9.10;99.90;;;;;;4955135;28;20427;-70
2022/03/22 03:59:51;;;;;;;89.55;59.40;;;9.10;99.90;;;;;;4966224;28;20048;-70
2022/03/22 04:02:18;;;;;;;78.57;56.70;;;9.10;99.90;;;;;;4963298;28;20411;-70
2022/03/22 04:04:51;;;;;;;93.43;61.25;;;9.10;99.90;;;;;;4955853;28;20859;-70
2022/03/22 04:07:20;;;;;;;90.75;58.28;;;9.10;99.90;;;;;;4947065;29;20052;-70
2022/03/22 04:09:47;;;;;;;91.68;59.70;;;9.10;99.90;;;;;;4940514;29;20057;-70
2022/03/22 04:12:14;;;;;;;88.07;58.58;;;9.10;99.90;;;;;;4953214;29;20043;-70
2022/03/22 04:14:41;;;;;;;97.30;62.13;;;9.10;99.90;;;;;;4954637;29;20058;-70
2022/03/22 04:17:08;;;;;;;92.80;61.92;;;9.10;99.90;;;;;;4945035;29;20066;-70
2022/03/22 04:19:35;;;;;;;91.82;60.85;;;9.10;99.90;;;;;;4967634;28;20058;-70
2022/03/22 04:22:03;;;;;;;96.63;63.88;;;9.00;99.90;;;;;;4956360;28;20046;-70
2022/03/22 04:24:30;;;;;;;85.95;60.30;;;9.00;99.90;;;;;;4945522;28;20066;-70
2022/03/22 04:32:41;;;;;;;90.47;61.38;;;9.00;99.90;;;;;;4952717;29;20043;-70
2022/03/22 04:32:43;;;;;;;92.43;58.40;;;9.10;99.90;;;;;;4957280;28;20048;-70
2022/03/22 04:35:14;;;;;;;91.65;58.45;;;9.20;99.90;;;;;;4946808;29;20039;-71
2022/03/22 04:37:41;;;;;;;88.03;57.50;;;9.20;99.90;;;;;;4968468;28;20055;-70
2022/03/22 04:40:08;;;;;;;89.05;57.95;;;9.20;99.90;;;;;;4949184;28;20057;-70
2022/03/22 04:42:35;;;;;;;85.18;58.10;;;9.30;99.90;;;;;;4948911;29;20418;-70
2022/03/22 04:45:03;;;;;;;93.43;61.03;;;9.30;99.90;;;;;;4939238;29;20098;-70
2022/03/22 04:47:30;;;;;;;90.13;59.78;;;9.30;99.90;;;;;;4956926;28;20047;-70
2022/03/22 04:49:57;;;;;;;89.93;59.05;;;9.20;99.90;;;;;;4949593;28;20058;-70
2022/03/22 04:57:55;;;;;;;92.82;60.53;;;9.20;99.90;;;;;;4959722;28;20059;-70
2022/03/22 05:00:22;;;;;;;95.53;62.03;;;9.20;99.90;;;;;;4949942;29;20063;-70
2022/03/22 05:02:49;;;;;;;91.90;60.45;;;9.20;99.90;;;;;;4935416;29;20056;-70
2022/03/22 05:06:25;;;;;;;88.90;59.53;;;9.10;99.90;;;;;;4945983;29;20135;-70
2022/03/22 05:08:04;;;;;;;90.75;59.10;;;9.10;99.90;;;;;;4955068;29;20411;-70
2022/03/22 05:10:34;;;;;;;96.40;65.47;;;9.10;99.90;;;;;;4965977;28;20062;-71
2022/03/22 05:13:01;;;;;;;93.03;60.55;;;9.20;99.90;;;;;;4966319;28;20062;-70
2022/03/22 05:15:28;;;;;;;93.80;61.05;;;9.20;99.90;;;;;;4936207;29;20051;-70
2022/03/22 05:17:56;;;;;;;90.70;59.13;;;9.20;99.90;;;;;;4935773;29;20185;-70
2022/03/22 05:20:23;;;;;;;90.35;59.40;;;9.20;99.90;;;;;;4938816;29;20063;-70
2022/03/22 05:22:50;;;;;;;89.03;60.08;;;9.20;99.90;;;;;;4967802;28;20043;-70
2022/03/22 05:25:19;;;;;;;97.03;63.33;;;9.20;99.90;;;;;;4963028;28;20058;-70
2022/03/22 05:27:46;;;;;;;93.50;62.95;;;9.20;99.90;;;;;;4935400;29;20062;-71
2022/03/22 05:30:14;;;;;;;97.03;62.08;;;9.20;99.90;;;;;;4942289;28;20047;-70
2022/03/22 05:32:40;;;;;;;95.18;62.42;;;9.20;99.90;;;;;;4935904;29;20054;-70
2022/03/22 05:35:09;;;;;;;89.28;58.92;;;9.20;99.90;;;;;;4938246;29;20051;-70
2022/03/22 05:37:36;;;;;;;93.50;65.30;;;9.20;99.90;;;;;;4944652;29;20503;-70
2022/03/22 05:40:03;;;;;;;97.93;65.68;;;9.30;99.90;;;;;;4943909;28;20043;-70
2022/03/22 05:42:31;;;;;;;91.82;61.50;;;9.30;99.90;;;;;;4948026;28;20040;-70
2022/03/22 05:44:58;;;;;;;92.70;61.78;;;9.30;99.90;;;;;;4951208;29;20078;-70
2022/03/22 05:47:25;;;;;;;93.78;62.13;;;9.30;99.90;;;;;;4936552;29;20065;-73
2022/03/22 05:49:52;;;;;;;92.25;61.58;;;9.30;99.90;;;;;;4943230;29;20402;-70
2022/03/22 05:52:19;;;;;;;82.82;57.75;;;9.30;99.90;;;;;;4949833;28;20767;-70
2022/03/22 05:54:46;;;;;;;90.68;62.50;;;9.30;99.90;;;;;;4940672;28;20047;-70
2022/03/22 05:57:13;;;;;;;81.25;56.35;;;9.30;99.90;;;;;;4951042;28;20066;-67
2022/03/22 05:59:40;;;;;;;150.68;106.80;;;9.30;99.90;;;;;;4950800;28;20055;-69
2022/03/22 06:02:07;;;;;;;261.30;190.52;;;9.40;99.90;;;;;;4953828;28;20519;-72
2022/03/22 06:04:34;;;;;;;109.40;73.28;;;9.40;99.90;;;;;;4950542;28;20051;-71
2022/03/22 06:07:01;;;;;;;101.78;64.47;;;9.40;99.90;;;;;;4940586;29;20098;-70
2022/03/22 06:09:27;;;;;;;91.40;61.83;;;9.40;99.90;;;;;;4951482;29;20119;-71
2022/03/22 06:11:55;;;;;;;92.60;59.95;;;9.40;99.90;;;;;;4951157;29;20058;-72
2022/03/22 06:14:22;;;;;;;89.82;61.08;;;9.40;99.90;;;;;;4964606;28;20047;-71
2022/03/22 06:16:50;;;;;;;89.55;58.33;;;9.40;99.90;;;;;;4942674;29;20054;-71
2022/03/22 06:19:17;;;;;;;89.28;58.60;;;9.40;99.90;;;;;;4962683;28;20051;-71
2022/03/22 06:21:44;;;;;;;85.80;56.10;;;9.40;99.90;;;;;;4937047;29;20062;-72
2022/03/22 06:24:11;;;;;;;90.43;59.33;;;9.40;99.90;;;;;;4949369;28;20070;-71
2022/03/22 06:26:38;;;;;;;87.47;58.28;;;9.30;99.90;;;;;;4955985;28;20047;-71
2022/03/22 06:29:05;;;;;;;98.53;62.65;;;9.30;99.90;;;;;;4953871;28;20674;-72
2022/03/22 06:31:35;;;;;;;93.85;60.47;;;9.30;99.90;;;;;;4953340;29;20051;-71
2022/03/22 06:34:02;;;;;;;93.90;61.60;;;9.30;99.90;;;;;;4953268;28;20053;-70
2022/03/22 06:36:29;;;;;;;88.97;58.72;;;9.40;99.90;;;;;;4943939;29;20043;-71
2022/03/22 06:38:56;;;;;;;92.30;58.58;;;9.50;99.90;;;;;;4962647;28;20088;-71
2022/03/22 06:41:26;;;;;;;90.55;60.40;;;9.50;99.90;;;;;;4962205;28;20047;-70
2022/03/22 06:43:53;;;;;;;83.55;56.47;;;9.50;99.90;;;;;;4955865;29;20054;-71
2022/03/22 06:46:22;;;;;;;87.78;57.53;;;9.60;99.90;;;;;;4948422;28;20055;-71
2022/03/22 06:48:50;;;;;;;88.30;59.92;;;9.60;99.90;;;;;;4971099;28;20078;-70
2022/03/22 06:51:22;;;;;;;91.10;59.28;;;9.60;99.90;;;;;;4947497;28;20098;-73
2022/03/22 06:53:50;;;;;;;98.50;67.55;;;9.70;99.90;;;;;;4960527;28;20062;-71
2022/03/22 06:56:18;;;;;;;85.93;59.85;;;9.70;99.90;;;;;;4951182;29;20044;-71
2022/03/22 06:58:45;;;;;;;91.30;63.35;;;9.70;99.90;;;;;;4942751;29;20456;-71
2022/03/22 07:01:12;;;;;;;88.45;58.85;;;9.70;99.90;;;;;;4947161;29;20052;-69
2022/03/22 07:03:43;;;;;;;93.70;62.03;;;9.80;99.90;;;;;;4965070;28;20047;-69
2022/03/22 07:06:10;;;;;;;94.53;61.45;;;9.80;99.90;;;;;;4950404;29;20106;-69
2022/03/22 07:08:38;;;;;;;89.35;61.85;;;9.90;99.90;;;;;;4955665;28;20061;-69
2022/03/22 07:13:52;;;;;;;167.07;118.55;;;10.10;99.90;;;;;;4938553;29;20067;-69
2022/03/22 07:16:19;;;;;;;108.50;66.03;;;10.10;99.90;;;;;;4948254;28;20054;-69
2022/03/22 07:18:46;;;;;;;88.90;60.30;;;10.20;99.90;;;;;;4945560;29;20070;-69
2022/03/22 07:21:13;;;;;;;85.90;57.88;;;10.30;99.90;;;;;;4956450;28;20418;-69
2022/03/22 07:23:41;;;;;;;88.35;58.28;;;10.40;99.90;;;;;;4939107;29;20048;-69
2022/03/22 07:26:08;;;;;;;88.97;58.72;;;10.50;99.90;;;;;;4955297;29;20051;-69
2022/03/22 07:28:35;;;;;;;86.70;58.38;;;10.60;99.90;;;;;;4962045;28;20046;-69
2022/03/22 07:31:03;;;;;;;82.53;55.08;;;10.70;99.90;;;;;;4975309;28;20051;-71
2022/03/22 07:33:31;;;;;;;80.10;54.93;;;10.80;99.90;;;;;;4957643;28;20046;-70
2022/03/22 07:35:58;;;;;;;85.47;55.38;;;10.90;99.90;;;;;;4949570;28;20039;-69
2022/03/22 07:38:25;;;;;;;74.80;52.42;;;11.00;99.90;;;;;;4937175;29;20048;-70
2022/03/22 07:40:52;;;;;;;81.53;51.67;;;11.20;99.90;;;;;;4947043;29;20058;-69
2022/03/22 07:43:18;;;;;;;74.03;50.63;;;11.20;99.90;;;;;;4966174;28;20047;-69
2022/03/22 07:45:46;;;;;;;75.50;52.50;;;11.20;99.90;;;;;;4958972;28;20054;-69
2022/03/22 07:48:13;;;;;;;78.32;52.97;;;11.30;99.90;;;;;;4955260;29;20494;-69
2022/03/22 07:53:25;;;;;;;72.28;51.55;;;11.30;99.90;;;;;;4951202;28;20414;-68
2022/03/22 07:55:52;;;;;;;73.00;52.97;;;11.30;99.90;;;;;;4948709;28;20055;-69
2022/03/22 07:58:19;;;;;;;75.18;52.00;;;11.40;99.90;;;;;;4955644;29;20066;-69
2022/03/22 08:00:47;;;;;;;77.38;51.70;;;11.40;99.90;;;;;;4960811;28;20058;-69
2022/03/22 08:03:17;;;;;;;78.70;49.78;;;11.40;99.90;;;;;;4971009;28;20395;-69
2022/03/22 08:05:46;;;;;;;75.65;48.97;;;11.40;99.90;;;;;;4961103;28;20522;-70
2022/03/22 08:08:13;;;;;;;79.20;52.45;;;11.50;99.90;;;;;;4950278;29;20047;-72
2022/03/22 08:11:02;;;;;;;73.10;49.47;;;11.50;99.90;;;;;;4957356;28;20050;-71
2022/03/22 08:13:29;;;;;;;75.45;52.28;;;11.60;99.90;;;;;;4945889;29;20067;-72
2022/03/22 08:15:56;;;;;;;69.13;50.17;;;11.70;99.90;;;;;;4950647;28;20139;-70
2022/03/22 08:18:23;;;;;;;71.75;48.25;;;11.80;99.90;;;;;;4954610;29;20062;-70
2022/03/22 08:20:50;;;;;;;67.38;46.15;;;11.80;99.90;;;;;;4948185;29;20055;-69
2022/03/22 08:23:17;;;;;;;165.90;128.02;;;11.90;99.90;;;;;;4944709;28;20118;-69
2022/03/22 08:25:44;;;;;;;71.18;46.85;;;12.00;99.90;;;;;;4953582;29;20055;-70
2022/03/22 08:28:11;;;;;;;62.70;45.08;;;12.10;99.90;;;;;;4954056;29;20055;-68
2022/03/22 08:30:38;;;;;;;69.75;43.47;;;12.20;99.90;;;;;;4958074;28;20466;-72
2022/03/22 08:33:12;;;;;;;60.42;41.95;;;12.40;99.90;;;;;;4957916;28;20055;-70
2022/03/22 08:35:50;;;;;;;64.95;43.00;;;12.40;99.90;;;;;;4948056;29;20113;-70
2022/03/22 08:38:21;;;;;;;60.42;41.78;;;12.50;99.90;;;;;;4956330;28;20122;-68
2022/03/22 08:40:48;;;;;;;102.82;75.25;;;12.60;99.90;;;;;;4952375;28;20515;-71
2022/03/22 08:43:16;;;;;;;66.10;43.97;;;12.70;99.90;;;;;;4954564;28;20422;-69
2022/03/22 08:45:43;;;;;;;60.97;44.08;;;12.80;99.90;;;;;;4954024;29;20140;-68
2022/03/22 08:48:10;;;;;;;58.85;39.65;;;12.90;99.90;;;;;;4937313;29;20063;-69
2022/03/22 08:50:38;;;;;;;59.00;39.67;;;12.90;99.90;;;;;;4949345;29;20062;-68
2022/03/22 08:53:06;;;;;;;52.38;34.45;;;13.00;99.90;;;;;;4959467;28;20054;-68
2022/03/22 08:55:34;;;;;;;53.50;35.95;;;13.20;99.90;;;;;;4922512;29;20415;-69
2022/03/22 08:58:07;;;;;;;48.15;31.58;;;13.20;99.90;;;;;;4937652;29;20062;-69
2022/03/22 09:00:34;;;;;;;44.95;30.92;;;13.40;99.40;;;;;;4953442;29;20051;-69
2022/03/22 09:03:02;;;;;;;49.92;35.53;;;13.50;98.20;;;;;;4953409;29;20129;-70
2022/03/22 09:08:15;;;;;;;43.92;27.58;;;13.70;96.80;;;;;;4957631;28;20044;-69
2022/03/22 09:10:50;;;;;;;36.92;25.98;;;13.80;96.70;;;;;;4956665;28;20443;-70
2022/03/22 09:13:18;;;;;;;36.25;25.88;;;14.00;95.60;;;;;;4944554;28;20407;-71
2022/03/22 09:15:46;;;;;;;34.55;24.70;;;14.00;94.80;;;;;;4952259;29;20126;-70
2022/03/22 09:18:16;;;;;;;33.10;22.80;;;14.10;94.50;;;;;;4937516;29;20419;-70
2022/03/22 09:20:44;;;;;;;34.42;23.63;;;14.20;94.30;;;;;;4954243;28;20061;-70
2022/03/22 09:23:11;;;;;;;30.52;22.42;;;14.30;93.50;;;;;;4937123;29;20066;-70
2022/03/22 09:25:39;;;;;;;29.35;21.90;;;14.40;93.90;;;;;;4937528;29;20491;-70
2022/03/22 09:28:07;;;;;;;34.08;22.90;;;14.50;93.90;;;;;;4953747;29;20054;-71
2022/03/22 09:30:36;;;;;;;36.28;23.45;;;14.70;93.30;;;;;;4937799;29;20140;-71
2022/03/22 09:33:04;;;;;;;35.88;23.38;;;14.70;92.60;;;;;;4922244;29;20059;-70
2022/03/22 09:35:31;;;;;;;31.13;20.70;;;14.80;91.90;;;;;;4953082;29;20051;-70
2022/03/22 09:37:59;;;;;;;29.52;20.17;;;14.80;91.30;;;;;;4937534;29;20059;-70
2022/03/22 09:40:27;;;;;;;35.17;21.67;;;14.80;91.40;;;;;;4936816;29;20139;-71
2022/03/22 09:42:55;;;;;;;30.88;20.90;;;14.90;90.40;;;;;;4952708;29;20477;-70
2022/03/22 09:45:27;;;;;;;30.88;21.13;;;15.00;90.30;;;;;;4953158;29;20075;-70
2022/03/22 09:47:54;;;;;;;33.38;22.35;;;15.00;90.80;;;;;;4922213;29;20059;-71
2022/03/22 09:51:44;;;;;;;30.52;22.02;;;15.00;90.70;;;;;;4952996;29;20126;-71
2022/03/22 09:53:12;;;;;;;29.17;20.50;;;15.20;90.90;;;;;;4957454;28;20062;-70
2022/03/22 09:55:40;;;;;;;29.23;21.27;;;15.30;90.30;;;;;;4967908;28;20551;-70
2022/03/22 09:58:07;;;;;;;30.17;19.50;;;15.40;90.00;;;;;;4933685;29;20059;-71
2022/03/22 10:00:34;;;;;;;28.50;20.73;;;15.40;88.50;;;;;;4952665;29;20047;-70
2022/03/22 10:03:04;;;;;;;;;;;15.40;87.90;;;;;;4947089;28;20052;-71
2022/03/22 10:05:31;;;;;;;33.22;21.55;;;15.40;86.20;;;;;;4934357;29;19938;-71
2022/03/22 10:08:05;;;;;;;34.75;22.30;;;15.40;88.30;;;;;;4947095;29;20065;-71
2022/03/22 10:10:32;;;;;;;27.48;18.70;;;15.50;86.70;;;;;;4950738;29;20127;-70
2022/03/22 10:13:03;;;;;;;28.73;20.70;;;15.50;88.10;;;;;;4952308;29;20526;-68
2022/03/22 10:15:32;;;;;;;24.25;18.10;;;15.70;88.70;;;;;;4967980;28;20137;-70
2022/03/22 10:18:07;;;;;;;24.50;17.55;;;15.70;89.20;;;;;;4968733;28;20055;-70
2022/03/22 10:20:35;;;;;;;21.33;16.52;;;15.80;85.10;;;;;;4936501;29;20138;-70
2022/03/22 10:23:03;;;;;;;25.73;18.10;;;15.80;84.30;;;;;;4971605;28;20367;-70
2022/03/22 10:25:31;;;;;;;22.58;15.57;;;15.80;85.40;;;;;;4953732;28;20061;-70
2022/03/22 10:28:02;;;;;;;20.60;14.35;;;16.00;85.30;;;;;;4950701;29;20051;-70
2022/03/22 10:30:30;;;;;;;19.83;14.02;;;16.10;82.20;;;;;;4952360;29;20469;-70
2022/03/22 10:32:57;;;;;;;21.55;14.75;;;16.20;83.30;;;;;;4956956;28;20059;-70
2022/03/22 10:35:29;;;;;;;20.00;14.98;;;16.30;82.10;;;;;;4952173;28;20059;-71
2022/03/22 10:38:04;;;;;;;18.67;13.73;;;16.30;81.30;;;;;;4953465;28;20043;-70
2022/03/22 10:40:46;;;;;;;20.02;13.00;;;16.30;80.50;;;;;;4951445;29;20040;-70
2022/03/22 10:43:22;;;;;;;18.75;12.88;;;16.30;78.90;;;;;;4944409;29;20083;-69
2022/03/22 10:46:04;;;;;;;16.77;12.73;;;16.30;79.60;;;;;;4964109;28;20381;-68
2022/03/22 10:48:34;;;;;;;18.10;12.27;;;16.30;79.30;;;;;;4953521;28;20055;-73
2022/03/22 10:51:03;;;;;;;17.52;12.52;;;16.50;79.80;;;;;;4963872;28;20051;-71
2022/03/22 10:53:31;;;;;;;14.43;12.02;;;16.50;79.30;;;;;;4936119;29;20079;-75
2022/03/22 10:55:59;;;;;;;18.77;13.02;;;16.50;79.00;;;;;;4935836;29;20066;-73
2022/03/22 10:58:27;;;;;;;19.55;13.05;;;16.50;78.90;;;;;;4953279;28;20043;-73
2022/03/22 11:00:54;;;;;;;23.70;15.55;;;16.50;79.00;;;;;;4951618;28;20138;-75
2022/03/22 11:03:22;;;;;;;16.80;12.30;;;16.60;77.80;;;;;;4947956;28;20463;-75
2022/03/22 11:05:52;;;;;;;22.10;12.68;;;16.60;77.50;;;;;;4944513;29;20043;-73
2022/03/22 11:08:26;;;;;;;19.23;14.38;;;16.60;77.70;;;;;;4948855;29;20496;-75
2022/03/22 11:10:55;;;;;;;19.10;13.55;;;16.70;77.50;;;;;;4969684;28;20059;-73
2022/03/22 11:13:23;;;;;;;20.92;16.17;;;16.70;79.10;;;;;;4956820;28;20051;-73
2022/03/22 11:15:51;;;;;;;18.80;14.10;;;16.80;79.90;;;;;;4957219;28;20102;-76
2022/03/22 11:18:19;;;;;;;19.35;12.38;;;16.90;78.90;;;;;;4955444;29;20050;-75
2022/03/22 11:20:50;;;;;;;15.87;11.80;;;16.90;76.40;;;;;;4955148;28;20052;-75
2022/03/22 11:23:21;;;;;;;16.20;12.63;;;17.00;75.50;;;;;;4957882;28;20293;-74
2022/03/22 11:25:48;;;;;;;16.92;11.88;;;17.00;75.10;;;;;;4949631;29;20545;-76
2022/03/22 11:28:22;;;;;;;17.83;13.20;;;17.00;75.70;;;;;;4955764;28;20051;-74
2022/03/22 11:30:51;;;;;;;15.73;11.43;;;17.00;74.30;;;;;;4958649;28;20062;-74
2022/03/22 11:36:13;;;;;;;16.23;12.77;;;16.90;73.60;;;;;;4964028;28;20403;-74
2022/03/22 11:38:51;;;;;;;18.58;12.88;;;16.90;73.00;;;;;;4954410;28;20051;-72
2022/03/22 11:44:31;;;;;;;16.08;12.48;;;17.00;74.20;;;;;;4954096;29;20078;-63
2022/03/22 11:47:08;;;;;;;18.98;14.25;;;17.30;73.60;;;;;;4956158;28;20055;-61
2022/03/22 11:50:01;;;;;;;19.30;14.65;;;17.30;72.70;;;;;;4970168;28;20055;-73
2022/03/22 11:52:35;;;;;;;25.48;15.52;;;17.30;72.60;;;;;;4956786;28;20054;-73
2022/03/22 11:55:22;;;;;;;19.85;14.38;;;17.30;74.70;;;;;;4937322;29;20048;-70
2022/03/22 11:58:05;;;;;;;20.15;14.45;;;17.40;74.40;;;;;;4943949;29;20051;-68
2022/03/22 12:00:45;;;;;;;35.45;25.35;;;17.40;72.90;;;;;;4967841;28;20505;-74
2022/03/22 12:03:15;;;;;;;36.40;28.17;;;17.50;70.60;;;;;;4944018;29;20514;-69
2022/03/22 12:05:43;;;;;;;21.80;17.30;;;17.50;72.90;;;;;;4962601;28;20057;-70
2022/03/22 12:08:11;;;;;;;19.00;14.70;;;17.50;72.40;;;;;;4946444;28;20102;-74
2022/03/22 12:10:39;;;;;;;19.05;15.57;;;17.60;73.30;;;;;;4954585;28;20404;-79
2022/03/22 12:13:06;;;;;;;17.83;13.32;;;17.70;71.10;;;;;;4952120;28;20456;-79
2022/03/22 12:15:34;;;;;;;17.45;12.80;;;17.70;70.30;;;;;;4956709;28;20039;-81
2022/03/22 12:18:01;;;;;;;16.48;13.48;;;17.70;70.00;;;;;;4955021;29;20047;-78
2022/03/22 12:20:29;;;;;;;14.75;12.13;;;17.70;71.00;;;;;;4944438;28;20064;-77
2022/03/22 12:23:00;;;;;;;16.38;11.93;;;17.80;72.00;;;;;;4951452;28;20055;-67
2022/03/22 12:25:30;;;;;;;16.95;12.05;;;17.90;71.10;;;;;;4955451;28;20040;-79
2022/03/22 12:27:58;;;;;;;15.40;12.35;;;18.00;72.30;;;;;;4928395;29;20051;-77
2022/03/22 12:30:41;;;;;;;18.90;14.68;;;18.10;70.90;;;;;;4962503;28;20443;-78
2022/03/22 12:33:14;;;;;;;20.88;14.95;;;18.10;69.70;;;;;;4954540;29;20491;-78
2022/03/22 12:35:41;;;;;;;19.35;15.95;;;18.00;70.40;;;;;;4954909;29;20057;-78
2022/03/22 12:38:10;;;;;;;20.75;14.35;;;18.00;70.60;;;;;;4955353;28;20093;-74
2022/03/22 12:40:37;;;;;;;16.85;14.27;;;18.00;71.00;;;;;;4951188;28;20039;-67
2022/03/22 12:43:06;;;;;;;18.20;14.85;;;18.10;71.50;;;;;;4942955;29;20054;-71
2022/03/22 12:45:34;;;;;;;18.02;13.57;;;18.00;69.90;;;;;;4950045;29;20361;-70
2022/03/22 12:48:01;;;;;;;16.73;12.93;;;18.00;71.00;;;;;;4935809;29;20082;-68
2022/03/22 12:50:29;;;;;;;17.13;14.32;;;18.10;72.30;;;;;;4949708;28;20047;-70
2022/03/22 12:52:56;;;;;;;18.55;13.60;;;18.20;71.70;;;;;;4955438;28;20061;-69
2022/03/22 12:55:27;;;;;;;19.77;13.85;;;18.20;71.70;;;;;;4962269;28;20047;-69
2022/03/22 12:57:58;;;;;;;15.70;12.60;;;18.30;71.50;;;;;;4951606;29;20058;-68
2022/03/22 13:00:32;;;;;;;15.43;11.95;;;18.30;69.20;;;;;;4951565;29;20051;-68
2022/03/22 13:03:05;;;;;;;18.10;13.05;;;18.40;68.30;;;;;;4946677;29;20070;-68
2022/03/22 13:05:33;;;;;;;20.33;13.13;;;18.40;69.80;;;;;;4950777;28;20415;-69
2022/03/22 13:08:18;;;;;;;14.38;12.10;;;18.40;70.70;;;;;;4953940;28;20051;-61
2022/03/22 13:16:28;;;;;;;13.95;10.68;;;18.40;68.50;;;;;;4951471;29;20047;-69